sensor_id;sensor_type;location;lat;lon;timestamp;temperature;humidity
70051;SHT30;57391;51.306;22.680;2022-10-31T00:01:25;11.09;78.97
70051;SHT30;57391;51.306;22.680;2022-10-31T00:03:57;11.03;78.98
70051;SHT30;57391;51.306;22.680;2022-10-31T00:06:23;11.02;79.19
70051;SHT30;57391;51.306;22.680;2022-10-31T00:08:52;11.00;79.11
70051;SHT30;57391;51.306;22.680;2022-10-31T00:11:26;10.98;78.83
70051;SHT30;57391;51.306;22.680;2022-10-31T00:13:54;10.95;78.73
70051;SHT30;57391;51.306;22.680;2022-10-31T00:16:22;10.92;78.72
70051;SHT30;57391;51.306;22.680;2022-10-31T00:18:52;10.89;78.83
70051;SHT30;57391;51.306;22.680;2022-10-31T00:21:22;10.89;79.08
70051;SHT30;57391;51.306;22.680;2022-10-31T00:23:51;10.85;79.04
70051;SHT30;57391;51.306;22.680;2022-10-31T00:26:19;10.82;78.98
70051;SHT30;57391;51.306;22.680;2022-10-31T00:28:47;10.78;79.10
70051;SHT30;57391;51.306;22.680;2022-10-31T00:31:15;10.75;79.12
70051;SHT30;57391;51.306;22.680;2022-10-31T00:33:44;10.73;79.36
70051;SHT30;57391;51.306;22.680;2022-10-31T00:36:12;10.69;79.25
70051;SHT30;57391;51.306;22.680;2022-10-31T00:38:42;10.66;79.15
70051;SHT30;57391;51.306;22.680;2022-10-31T00:41:11;10.61;79.04
70051;SHT30;57391;51.306;22.680;2022-10-31T00:43:41;10.57;78.93
70051;SHT30;57391;51.306;22.680;2022-10-31T00:46:10;10.53;78.91
70051;SHT30;57391;51.306;22.680;2022-10-31T00:48:38;10.50;78.84
70051;SHT30;57391;51.306;22.680;2022-10-31T00:51:06;10.46;78.90
70051;SHT30;57391;51.306;22.680;2022-10-31T00:53:34;10.44;78.81
70051;SHT30;57391;51.306;22.680;2022-10-31T00:56:01;10.41;78.86
70051;SHT30;57391;51.306;22.680;2022-10-31T00:58:29;10.40;78.93
70051;SHT30;57391;51.306;22.680;2022-10-31T01:00:56;10.40;78.86
70051;SHT30;57391;51.306;22.680;2022-10-31T01:03:25;10.40;79.09
70051;SHT30;57391;51.306;22.680;2022-10-31T01:05:59;10.41;79.50
70051;SHT30;57391;51.306;22.680;2022-10-31T01:08:33;10.42;80.54
70051;SHT30;57391;51.306;22.680;2022-10-31T01:13:40;10.43;80.11
70051;SHT30;57391;51.306;22.680;2022-10-31T01:16:10;10.41;80.21
70051;SHT30;57391;51.306;22.680;2022-10-31T01:18:43;10.42;79.84
70051;SHT30;57391;51.306;22.680;2022-10-31T01:21:13;10.40;79.49
70051;SHT30;57391;51.306;22.680;2022-10-31T01:23:44;10.39;79.33
70051;SHT30;57391;51.306;22.680;2022-10-31T01:26:15;10.36;78.97
70051;SHT30;57391;51.306;22.680;2022-10-31T01:28:47;10.33;79.17
70051;SHT30;57391;51.306;22.680;2022-10-31T01:31:19;10.32;79.99
70051;SHT30;57391;51.306;22.680;2022-10-31T01:33:49;10.27;79.37
70051;SHT30;57391;51.306;22.680;2022-10-31T01:36:23;10.19;78.85
70051;SHT30;57391;51.306;22.680;2022-10-31T01:38:57;10.10;78.58
70051;SHT30;57391;51.306;22.680;2022-10-31T01:41:31;10.01;78.83
70051;SHT30;57391;51.306;22.680;2022-10-31T01:46:41;9.89;79.26
70051;SHT30;57391;51.306;22.680;2022-10-31T01:49:14;9.86;80.01
70051;SHT30;57391;51.306;22.680;2022-10-31T01:51:46;9.85;80.18
70051;SHT30;57391;51.306;22.680;2022-10-31T01:54:22;9.80;79.94
70051;SHT30;57391;51.306;22.680;2022-10-31T01:56:56;9.73;79.85
70051;SHT30;57391;51.306;22.680;2022-10-31T01:59:26;9.73;80.44
70051;SHT30;57391;51.306;22.680;2022-10-31T02:01:57;9.74;81.09
70051;SHT30;57391;51.306;22.680;2022-10-31T02:04:26;9.74;81.55
70051;SHT30;57391;51.306;22.680;2022-10-31T02:07:02;9.74;81.60
70051;SHT30;57391;51.306;22.680;2022-10-31T02:09:39;9.72;81.75
70051;SHT30;57391;51.306;22.680;2022-10-31T02:12:08;9.71;81.89
70051;SHT30;57391;51.306;22.680;2022-10-31T02:14:38;9.69;81.82
70051;SHT30;57391;51.306;22.680;2022-10-31T02:17:07;9.68;81.77
70051;SHT30;57391;51.306;22.680;2022-10-31T02:28:25;9.64;82.51
70051;SHT30;57391;51.306;22.680;2022-10-31T02:32:19;9.61;82.87
70051;SHT30;57391;51.306;22.680;2022-10-31T02:40:39;9.57;82.95
70051;SHT30;57391;51.306;22.680;2022-10-31T02:43:35;9.55;82.96
70051;SHT30;57391;51.306;22.680;2022-10-31T02:49:22;9.52;82.66
70051;SHT30;57391;51.306;22.680;2022-10-31T02:52:21;9.49;82.33
70051;SHT30;57391;51.306;22.680;2022-10-31T02:54:53;9.47;82.39
70051;SHT30;57391;51.306;22.680;2022-10-31T02:57:25;9.47;82.61
70051;SHT30;57391;51.306;22.680;2022-10-31T03:00:03;9.46;82.25
70051;SHT30;57391;51.306;22.680;2022-10-31T03:11:03;9.26;81.26
70051;SHT30;57391;51.306;22.680;2022-10-31T03:16:13;9.16;81.46
70051;SHT30;57391;51.306;22.680;2022-10-31T03:19:08;9.08;81.13
70051;SHT30;57391;51.306;22.680;2022-10-31T03:21:51;9.01;81.26
70051;SHT30;57391;51.306;22.680;2022-10-31T03:24:46;8.95;81.56
70051;SHT30;57391;51.306;22.680;2022-10-31T03:27:18;8.90;81.57
70051;SHT30;57391;51.306;22.680;2022-10-31T03:29:52;8.87;81.78
70051;SHT30;57391;51.306;22.680;2022-10-31T03:32:29;8.83;81.33
70051;SHT30;57391;51.306;22.680;2022-10-31T03:35:04;8.82;81.58
70051;SHT30;57391;51.306;22.680;2022-10-31T03:37:37;8.80;81.12
70051;SHT30;57391;51.306;22.680;2022-10-31T03:40:10;8.79;81.31
70051;SHT30;57391;51.306;22.680;2022-10-31T03:42:46;8.78;81.69
70051;SHT30;57391;51.306;22.680;2022-10-31T03:45:25;8.78;81.99
70051;SHT30;57391;51.306;22.680;2022-10-31T03:48:00;8.76;82.19
70051;SHT30;57391;51.306;22.680;2022-10-31T03:50:30;8.75;82.35
70051;SHT30;57391;51.306;22.680;2022-10-31T03:53:25;8.76;82.48
70051;SHT30;57391;51.306;22.680;2022-10-31T03:56:02;8.75;82.37
70051;SHT30;57391;51.306;22.680;2022-10-31T03:58:42;8.73;81.72
70051;SHT30;57391;51.306;22.680;2022-10-31T04:01:30;8.70;81.69
70051;SHT30;57391;51.306;22.680;2022-10-31T04:04:01;8.68;81.50
70051;SHT30;57391;51.306;22.680;2022-10-31T04:06:29;8.67;81.57
70051;SHT30;57391;51.306;22.680;2022-10-31T04:09:02;8.66;81.64
70051;SHT30;57391;51.306;22.680;2022-10-31T04:11:35;8.67;81.94
70051;SHT30;57391;51.306;22.680;2022-10-31T04:14:35;8.66;81.62
70051;SHT30;57391;51.306;22.680;2022-10-31T04:17:07;8.65;81.64
70051;SHT30;57391;51.306;22.680;2022-10-31T04:19:42;8.68;82.13
70051;SHT30;57391;51.306;22.680;2022-10-31T04:22:09;8.69;82.28
70051;SHT30;57391;51.306;22.680;2022-10-31T04:24:38;8.71;82.49
70051;SHT30;57391;51.306;22.680;2022-10-31T04:27:08;8.71;82.03
70051;SHT30;57391;51.306;22.680;2022-10-31T04:29:37;8.70;81.80
70051;SHT30;57391;51.306;22.680;2022-10-31T04:32:05;8.72;81.77
70051;SHT30;57391;51.306;22.680;2022-10-31T04:34:31;8.71;81.79
70051;SHT30;57391;51.306;22.680;2022-10-31T04:36:59;8.72;81.74
70051;SHT30;57391;51.306;22.680;2022-10-31T04:39:27;8.71;81.51
70051;SHT30;57391;51.306;22.680;2022-10-31T04:42:14;8.66;81.11
70051;SHT30;57391;51.306;22.680;2022-10-31T04:44:41;8.61;80.93
70051;SHT30;57391;51.306;22.680;2022-10-31T04:47:08;8.57;80.92
70051;SHT30;57391;51.306;22.680;2022-10-31T04:49:36;8.55;80.84
70051;SHT30;57391;51.306;22.680;2022-10-31T04:52:03;8.53;80.73
70051;SHT30;57391;51.306;22.680;2022-10-31T04:54:30;8.51;80.72
70051;SHT30;57391;51.306;22.680;2022-10-31T04:57:26;8.49;80.65
70051;SHT30;57391;51.306;22.680;2022-10-31T04:59:55;8.46;80.37
70051;SHT30;57391;51.306;22.680;2022-10-31T05:02:23;8.42;80.31
70051;SHT30;57391;51.306;22.680;2022-10-31T05:04:54;8.39;80.43
70051;SHT30;57391;51.306;22.680;2022-10-31T05:07:21;8.37;80.75
70051;SHT30;57391;51.306;22.680;2022-10-31T05:09:49;8.37;81.07
70051;SHT30;57391;51.306;22.680;2022-10-31T05:12:17;8.35;81.21
70051;SHT30;57391;51.306;22.680;2022-10-31T05:15:23;8.30;81.19
70051;SHT30;57391;51.306;22.680;2022-10-31T05:18:16;8.26;81.22
70051;SHT30;57391;51.306;22.680;2022-10-31T05:21:01;8.25;81.26
70051;SHT30;57391;51.306;22.680;2022-10-31T05:23:35;8.23;81.24
70051;SHT30;57391;51.306;22.680;2022-10-31T05:26:02;8.24;81.20
70051;SHT30;57391;51.306;22.680;2022-10-31T05:28:29;8.23;81.04
70051;SHT30;57391;51.306;22.680;2022-10-31T05:30:56;8.24;81.01
70051;SHT30;57391;51.306;22.680;2022-10-31T05:33:23;8.24;80.96
70051;SHT30;57391;51.306;22.680;2022-10-31T05:35:50;8.27;81.00
70051;SHT30;57391;51.306;22.680;2022-10-31T05:38:31;8.26;80.93
70051;SHT30;57391;51.306;22.680;2022-10-31T05:41:02;8.27;80.92
70051;SHT30;57391;51.306;22.680;2022-10-31T05:43:31;8.29;80.87
70051;SHT30;57391;51.306;22.680;2022-10-31T05:45:59;8.32;80.90
70051;SHT30;57391;51.306;22.680;2022-10-31T05:48:46;8.36;80.82
70051;SHT30;57391;51.306;22.680;2022-10-31T05:51:32;8.36;80.79
70051;SHT30;57391;51.306;22.680;2022-10-31T05:53:59;8.36;80.82
70051;SHT30;57391;51.306;22.680;2022-10-31T05:56:27;8.39;80.48
70051;SHT30;57391;51.306;22.680;2022-10-31T05:58:54;8.45;80.40
70051;SHT30;57391;51.306;22.680;2022-10-31T06:01:22;8.50;80.07
70051;SHT30;57391;51.306;22.680;2022-10-31T06:03:49;8.57;80.10
70051;SHT30;57391;51.306;22.680;2022-10-31T06:06:17;8.67;80.14
70051;SHT30;57391;51.306;22.680;2022-10-31T06:08:46;8.79;80.59
70051;SHT30;57391;51.306;22.680;2022-10-31T06:11:15;8.94;80.83
70051;SHT30;57391;51.306;22.680;2022-10-31T06:14:05;9.10;80.65
70051;SHT30;57391;51.306;22.680;2022-10-31T06:16:45;9.36;80.57
70051;SHT30;57391;51.306;22.680;2022-10-31T06:19:35;9.77;80.14
70051;SHT30;57391;51.306;22.680;2022-10-31T06:22:02;10.17;79.51
70051;SHT30;57391;51.306;22.680;2022-10-31T06:24:29;10.57;78.97
70051;SHT30;57391;51.306;22.680;2022-10-31T06:27:04;11.06;78.32
70051;SHT30;57391;51.306;22.680;2022-10-31T06:29:33;11.52;77.47
70051;SHT30;57391;51.306;22.680;2022-10-31T06:32:06;11.93;76.46
70051;SHT30;57391;51.306;22.680;2022-10-31T06:34:39;12.30;75.27
70051;SHT30;57391;51.306;22.680;2022-10-31T06:37:08;12.59;74.29
70051;SHT30;57391;51.306;22.680;2022-10-31T06:39:39;12.88;73.70
70051;SHT30;57391;51.306;22.680;2022-10-31T06:42:09;13.20;73.05
70051;SHT30;57391;51.306;22.680;2022-10-31T06:44:37;13.49;71.80
70051;SHT30;57391;51.306;22.680;2022-10-31T06:47:49;13.73;70.73
70051;SHT30;57391;51.306;22.680;2022-10-31T06:50:26;13.98;70.22
70051;SHT30;57391;51.306;22.680;2022-10-31T06:52:57;14.23;69.64
70051;SHT30;57391;51.306;22.680;2022-10-31T06:55:26;14.48;68.96
70051;SHT30;57391;51.306;22.680;2022-10-31T07:00:25;14.90;67.68
70051;SHT30;57391;51.306;22.680;2022-10-31T07:03:04;15.12;67.19
70051;SHT30;57391;51.306;22.680;2022-10-31T07:05:39;15.35;66.77
70051;SHT30;57391;51.306;22.680;2022-10-31T07:08:11;15.61;66.13
70051;SHT30;57391;51.306;22.680;2022-10-31T07:10:41;15.90;65.10
70051;SHT30;57391;51.306;22.680;2022-10-31T07:13:11;16.09;64.12
70051;SHT30;57391;51.306;22.680;2022-10-31T07:15:45;16.28;63.77
70051;SHT30;57391;51.306;22.680;2022-10-31T07:18:13;16.44;62.91
70051;SHT30;57391;51.306;22.680;2022-10-31T07:20:40;16.57;62.28
70051;SHT30;57391;51.306;22.680;2022-10-31T07:23:09;16.64;62.19
70051;SHT30;57391;51.306;22.680;2022-10-31T07:25:39;16.74;62.10
70051;SHT30;57391;51.306;22.680;2022-10-31T07:28:22;16.90;62.01
70051;SHT30;57391;51.306;22.680;2022-10-31T07:30:51;17.09;61.87
70051;SHT30;57391;51.306;22.680;2022-10-31T07:33:21;17.34;61.53
70051;SHT30;57391;51.306;22.680;2022-10-31T07:36:19;17.64;61.00
70051;SHT30;57391;51.306;22.680;2022-10-31T07:38:49;17.84;60.53
70051;SHT30;57391;51.306;22.680;2022-10-31T07:41:24;18.04;60.23
70051;SHT30;57391;51.306;22.680;2022-10-31T07:43:54;18.24;59.97
70051;SHT30;57391;51.306;22.680;2022-10-31T07:46:42;18.40;59.35
70051;SHT30;57391;51.306;22.680;2022-10-31T07:49:42;18.52;59.07
70051;SHT30;57391;51.306;22.680;2022-10-31T07:52:32;18.63;59.06
70051;SHT30;57391;51.306;22.680;2022-10-31T07:55:26;18.81;58.68
70051;SHT30;57391;51.306;22.680;2022-10-31T07:58:02;18.90;58.15
70051;SHT30;57391;51.306;22.680;2022-10-31T08:00:40;18.93;58.07
70051;SHT30;57391;51.306;22.680;2022-10-31T08:03:11;19.08;57.80
70051;SHT30;57391;51.306;22.680;2022-10-31T08:06:00;19.16;57.76
70051;SHT30;57391;51.306;22.680;2022-10-31T08:08:27;19.34;57.73
70051;SHT30;57391;51.306;22.680;2022-10-31T08:10:55;19.50;57.56
70051;SHT30;57391;51.306;22.680;2022-10-31T08:13:25;19.51;56.99
70051;SHT30;57391;51.306;22.680;2022-10-31T08:15:53;19.53;56.83
70051;SHT30;57391;51.306;22.680;2022-10-31T08:18:24;19.61;57.17
70051;SHT30;57391;51.306;22.680;2022-10-31T08:20:53;19.59;56.56
70051;SHT30;57391;51.306;22.680;2022-10-31T08:23:20;19.47;56.38
70051;SHT30;57391;51.306;22.680;2022-10-31T08:25:54;19.19;56.70
70051;SHT30;57391;51.306;22.680;2022-10-31T08:28:23;19.03;57.01
70051;SHT30;57391;51.306;22.680;2022-10-31T08:30:51;18.82;57.64
70051;SHT30;57391;51.306;22.680;2022-10-31T08:33:37;18.79;58.11
70051;SHT30;57391;51.306;22.680;2022-10-31T08:36:34;18.86;58.21
70051;SHT30;57391;51.306;22.680;2022-10-31T08:39:25;19.01;58.03
70051;SHT30;57391;51.306;22.680;2022-10-31T08:41:59;18.86;58.25
70051;SHT30;57391;51.306;22.680;2022-10-31T08:44:26;18.80;58.83
70051;SHT30;57391;51.306;22.680;2022-10-31T08:46:54;18.86;58.41
70051;SHT30;57391;51.306;22.680;2022-10-31T08:49:22;18.88;58.14
70051;SHT30;57391;51.306;22.680;2022-10-31T08:51:49;18.80;58.01
70051;SHT30;57391;51.306;22.680;2022-10-31T08:54:17;18.77;57.91
70051;SHT30;57391;51.306;22.680;2022-10-31T08:56:54;18.68;58.05
70051;SHT30;57391;51.306;22.680;2022-10-31T08:59:39;18.49;58.20
70051;SHT30;57391;51.306;22.680;2022-10-31T09:02:22;18.30;58.28
70051;SHT30;57391;51.306;22.680;2022-10-31T09:04:53;18.04;58.77
70051;SHT30;57391;51.306;22.680;2022-10-31T09:07:22;17.79;59.39
70051;SHT30;57391;51.306;22.680;2022-10-31T09:09:50;17.57;60.05
70051;SHT30;57391;51.306;22.680;2022-10-31T09:12:18;17.36;60.49
70051;SHT30;57391;51.306;22.680;2022-10-31T09:15:08;17.11;61.10
70051;SHT30;57391;51.306;22.680;2022-10-31T09:17:47;16.76;61.51
70051;SHT30;57391;51.306;22.680;2022-10-31T09:20:27;16.21;62.72
70051;SHT30;57391;51.306;22.680;2022-10-31T09:23:21;15.84;64.04
70051;SHT30;57391;51.306;22.680;2022-10-31T09:25:51;15.50;64.90
70051;SHT30;57391;51.306;22.680;2022-10-31T09:28:49;15.11;66.15
70051;SHT30;57391;51.306;22.680;2022-10-31T09:31:17;14.90;67.07
70051;SHT30;57391;51.306;22.680;2022-10-31T09:34:06;14.78;67.44
70051;SHT30;57391;51.306;22.680;2022-10-31T09:36:37;14.67;67.94
70051;SHT30;57391;51.306;22.680;2022-10-31T09:39:11;14.66;68.45
70051;SHT30;57391;51.306;22.680;2022-10-31T09:50:36;14.39;69.91
70051;SHT30;57391;51.306;22.680;2022-10-31T09:53:43;14.21;70.20
70051;SHT30;57391;51.306;22.680;2022-10-31T09:56:17;13.99;70.89
70051;SHT30;57391;51.306;22.680;2022-10-31T09:58:53;13.82;71.45
70051;SHT30;57391;51.306;22.680;2022-10-31T10:07:24;13.77;72.72
70051;SHT30;57391;51.306;22.680;2022-10-31T10:11:02;13.72;72.84
70051;SHT30;57391;51.306;22.680;2022-10-31T10:17:24;13.88;72.87
70051;SHT30;57391;51.306;22.680;2022-10-31T10:20:03;13.76;72.98
70051;SHT30;57391;51.306;22.680;2022-10-31T10:25:43;13.62;73.54
70051;SHT30;57391;51.306;22.680;2022-10-31T10:28:25;13.55;73.66
70051;SHT30;57391;51.306;22.680;2022-10-31T10:31:14;13.40;73.96
70051;SHT30;57391;51.306;22.680;2022-10-31T10:36:36;13.20;74.45
70051;SHT30;57391;51.306;22.680;2022-10-31T10:39:20;13.06;74.84
70051;SHT30;57391;51.306;22.680;2022-10-31T10:42:11;12.97;75.46
70051;SHT30;57391;51.306;22.680;2022-10-31T10:45:00;12.93;75.79
70051;SHT30;57391;51.306;22.680;2022-10-31T10:48:54;12.95;75.85
70051;SHT30;57391;51.306;22.680;2022-10-31T11:00:22;12.90;76.39
70051;SHT30;57391;51.306;22.680;2022-10-31T11:02:53;12.86;76.31
70051;SHT30;57391;51.306;22.680;2022-10-31T11:07:57;12.79;76.72
70051;SHT30;57391;51.306;22.680;2022-10-31T11:10:24;12.80;77.06
70051;SHT30;57391;51.306;22.680;2022-10-31T11:13:06;12.81;76.84
70051;SHT30;57391;51.306;22.680;2022-10-31T11:15:51;12.79;76.84
70051;SHT30;57391;51.306;22.680;2022-10-31T11:18:37;12.81;76.97
70051;SHT30;57391;51.306;22.680;2022-10-31T11:21:30;12.80;76.97
70051;SHT30;57391;51.306;22.680;2022-10-31T11:26:39;12.80;77.37
70051;SHT30;57391;51.306;22.680;2022-10-31T11:31:41;12.92;77.16
70051;SHT30;57391;51.306;22.680;2022-10-31T11:34:13;12.89;77.03
70051;SHT30;57391;51.306;22.680;2022-10-31T11:41:13;12.70;77.67
70051;SHT30;57391;51.306;22.680;2022-10-31T11:43:51;12.69;77.80
70051;SHT30;57391;51.306;22.680;2022-10-31T11:46:24;12.68;77.77
70051;SHT30;57391;51.306;22.680;2022-10-31T11:49:00;12.64;78.08
70051;SHT30;57391;51.306;22.680;2022-10-31T11:51:29;12.65;78.22
70051;SHT30;57391;51.306;22.680;2022-10-31T11:54:01;12.66;78.21
70051;SHT30;57391;51.306;22.680;2022-10-31T11:56:38;12.74;78.33
70051;SHT30;57391;51.306;22.680;2022-10-31T11:59:17;12.89;78.34
70051;SHT30;57391;51.306;22.680;2022-10-31T12:01:57;13.14;78.06
70051;SHT30;57391;51.306;22.680;2022-10-31T12:04:30;13.37;77.51
70051;SHT30;57391;51.306;22.680;2022-10-31T12:07:09;13.56;76.64
70051;SHT30;57391;51.306;22.680;2022-10-31T12:09:37;13.71;76.27
70051;SHT30;57391;51.306;22.680;2022-10-31T12:24:02;14.72;74.34
70051;SHT30;57391;51.306;22.680;2022-10-31T12:32:57;15.00;73.10
70051;SHT30;57391;51.306;22.680;2022-10-31T12:35:50;15.08;72.93
70051;SHT30;57391;51.306;22.680;2022-10-31T12:39:35;15.18;72.38
70051;SHT30;57391;51.306;22.680;2022-10-31T12:47:39;15.33;71.91
70051;SHT30;57391;51.306;22.680;2022-10-31T12:53:27;15.47;71.78
70051;SHT30;57391;51.306;22.680;2022-10-31T12:59:09;15.77;71.23
70051;SHT30;57391;51.306;22.680;2022-10-31T13:01:51;15.82;71.04
70051;SHT30;57391;51.306;22.680;2022-10-31T13:04:40;15.93;70.93
70051;SHT30;57391;51.306;22.680;2022-10-31T13:07:33;16.09;70.63
70051;SHT30;57391;51.306;22.680;2022-10-31T13:10:14;16.19;70.35
70051;SHT30;57391;51.306;22.680;2022-10-31T13:12:47;16.31;70.11
70051;SHT30;57391;51.306;22.680;2022-10-31T13:15:23;16.39;69.78
70051;SHT30;57391;51.306;22.680;2022-10-31T13:17:57;16.42;69.87
70051;SHT30;57391;51.306;22.680;2022-10-31T13:20:32;16.46;69.65
70051;SHT30;57391;51.306;22.680;2022-10-31T13:25:48;16.44;69.42
70051;SHT30;57391;51.306;22.680;2022-10-31T13:28:38;16.38;69.47
70051;SHT30;57391;51.306;22.680;2022-10-31T13:31:24;16.30;69.53
70051;SHT30;57391;51.306;22.680;2022-10-31T13:33:56;16.17;69.64
70051;SHT30;57391;51.306;22.680;2022-10-31T13:42:25;16.05;70.28
70051;SHT30;57391;51.306;22.680;2022-10-31T13:45:23;16.04;70.33
70051;SHT30;57391;51.306;22.680;2022-10-31T13:47:56;16.10;70.52
70051;SHT30;57391;51.306;22.680;2022-10-31T13:50:54;16.19;70.72
70051;SHT30;57391;51.306;22.680;2022-10-31T13:53:41;16.43;70.79
70051;SHT30;57391;51.306;22.680;2022-10-31T13:56:22;16.69;70.23
70051;SHT30;57391;51.306;22.680;2022-10-31T14:01:36;16.76;69.14
70051;SHT30;57391;51.306;22.680;2022-10-31T14:04:14;16.69;69.00
70051;SHT30;57391;51.306;22.680;2022-10-31T14:09:52;16.65;69.48
70051;SHT30;57391;51.306;22.680;2022-10-31T14:12:41;16.72;69.44
70051;SHT30;57391;51.306;22.680;2022-10-31T14:20:37;16.75;68.76
70051;SHT30;57391;51.306;22.680;2022-10-31T14:23:31;16.68;68.90
70051;SHT30;57391;51.306;22.680;2022-10-31T14:28:56;16.40;68.79
70051;SHT30;57391;51.306;22.680;2022-10-31T14:31:43;16.16;69.12
70051;SHT30;57391;51.306;22.680;2022-10-31T14:34:22;15.94;69.42
70051;SHT30;57391;51.306;22.680;2022-10-31T14:37:27;15.70;69.95
70051;SHT30;57391;51.306;22.680;2022-10-31T14:40:24;15.52;70.39
70051;SHT30;57391;51.306;22.680;2022-10-31T14:52:22;14.51;72.34
70051;SHT30;57391;51.306;22.680;2022-10-31T14:54:50;14.33;72.79
70051;SHT30;57391;51.306;22.680;2022-10-31T14:57:26;14.20;73.08
70051;SHT30;57391;51.306;22.680;2022-10-31T15:00:06;14.10;73.39
70051;SHT30;57391;51.306;22.680;2022-10-31T15:05:28;13.91;73.67
70051;SHT30;57391;51.306;22.680;2022-10-31T15:07:58;13.84;73.91
70051;SHT30;57391;51.306;22.680;2022-10-31T15:10:26;13.75;74.28
70051;SHT30;57391;51.306;22.680;2022-10-31T15:15:48;13.57;74.75
70051;SHT30;57391;51.306;22.680;2022-10-31T15:18:22;13.47;75.02
70051;SHT30;57391;51.306;22.680;2022-10-31T15:20:54;13.39;75.22
70051;SHT30;57391;51.306;22.680;2022-10-31T15:23:29;13.31;75.39
70051;SHT30;57391;51.306;22.680;2022-10-31T15:25:58;13.23;75.57
70051;SHT30;57391;51.306;22.680;2022-10-31T15:28:31;13.15;75.81
70051;SHT30;57391;51.306;22.680;2022-10-31T15:30:59;13.07;76.00
70051;SHT30;57391;51.306;22.680;2022-10-31T15:33:39;13.00;76.11
70051;SHT30;57391;51.306;22.680;2022-10-31T15:36:17;12.92;76.38
70051;SHT30;57391;51.306;22.680;2022-10-31T15:38:49;12.82;76.66
70051;SHT30;57391;51.306;22.680;2022-10-31T15:41:31;12.77;76.90
70051;SHT30;57391;51.306;22.680;2022-10-31T15:44:19;12.69;77.07
70051;SHT30;57391;51.306;22.680;2022-10-31T15:47:01;12.63;77.22
70051;SHT30;57391;51.306;22.680;2022-10-31T15:54:48;12.48;77.58
70051;SHT30;57391;51.306;22.680;2022-10-31T15:57:21;12.40;77.83
70051;SHT30;57391;51.306;22.680;2022-10-31T15:59:50;12.31;77.94
70051;SHT30;57391;51.306;22.680;2022-10-31T16:02:20;12.21;78.14
70051;SHT30;57391;51.306;22.680;2022-10-31T16:04:54;12.10;78.35
70051;SHT30;57391;51.306;22.680;2022-10-31T16:07:28;12.02;78.63
70051;SHT30;57391;51.306;22.680;2022-10-31T16:09:58;11.90;78.90
70051;SHT30;57391;51.306;22.680;2022-10-31T16:12:33;11.82;79.19
70051;SHT30;57391;51.306;22.680;2022-10-31T16:15:04;11.73;79.44
70051;SHT30;57391;51.306;22.680;2022-10-31T16:17:40;11.67;79.68
70051;SHT30;57391;51.306;22.680;2022-10-31T16:20:18;11.62;79.90
70051;SHT30;57391;51.306;22.680;2022-10-31T16:22:52;11.57;80.05
70051;SHT30;57391;51.306;22.680;2022-10-31T16:25:26;11.52;80.19
70051;SHT30;57391;51.306;22.680;2022-10-31T16:28:04;11.45;80.40
70051;SHT30;57391;51.306;22.680;2022-10-31T16:30:55;11.36;80.59
70051;SHT30;57391;51.306;22.680;2022-10-31T16:33:36;11.32;80.81
70051;SHT30;57391;51.306;22.680;2022-10-31T16:39:05;11.24;81.14
70051;SHT30;57391;51.306;22.680;2022-10-31T16:41:35;11.21;81.24
70051;SHT30;57391;51.306;22.680;2022-10-31T16:44:15;11.18;81.41
70051;SHT30;57391;51.306;22.680;2022-10-31T16:49:43;11.07;81.75
70051;SHT30;57391;51.306;22.680;2022-10-31T16:52:17;11.02;81.82
70051;SHT30;57391;51.306;22.680;2022-10-31T16:54:49;10.98;81.98
70051;SHT30;57391;51.306;22.680;2022-10-31T16:57:17;10.96;82.15
70051;SHT30;57391;51.306;22.680;2022-10-31T16:59:54;10.93;82.28
70051;SHT30;57391;51.306;22.680;2022-10-31T17:02:21;10.90;82.38
70051;SHT30;57391;51.306;22.680;2022-10-31T17:04:48;10.87;82.41
70051;SHT30;57391;51.306;22.680;2022-10-31T17:07:16;10.82;82.52
70051;SHT30;57391;51.306;22.680;2022-10-31T17:09:43;10.78;82.69
70051;SHT30;57391;51.306;22.680;2022-10-31T17:12:13;10.75;82.92
70051;SHT30;57391;51.306;22.680;2022-10-31T17:14:49;10.73;83.07
70051;SHT30;57391;51.306;22.680;2022-10-31T17:17:19;10.74;83.18
70051;SHT30;57391;51.306;22.680;2022-10-31T17:19:46;10.74;83.17
70051;SHT30;57391;51.306;22.680;2022-10-31T17:22:14;10.74;83.24
70051;SHT30;57391;51.306;22.680;2022-10-31T17:24:42;10.74;83.33
70051;SHT30;57391;51.306;22.680;2022-10-31T17:27:09;10.75;83.38
70051;SHT30;57391;51.306;22.680;2022-10-31T17:29:37;10.75;83.47
70051;SHT30;57391;51.306;22.680;2022-10-31T17:32:04;10.79;83.54
70051;SHT30;57391;51.306;22.680;2022-10-31T17:34:32;10.83;83.58
70051;SHT30;57391;51.306;22.680;2022-10-31T17:36:59;10.86;83.58
70051;SHT30;57391;51.306;22.680;2022-10-31T17:39:27;10.90;83.71
70051;SHT30;57391;51.306;22.680;2022-10-31T17:41:54;10.96;83.77
70051;SHT30;57391;51.306;22.680;2022-10-31T17:44:21;10.99;83.70
70051;SHT30;57391;51.306;22.680;2022-10-31T17:46:48;11.03;83.73
70051;SHT30;57391;51.306;22.680;2022-10-31T17:49:16;11.06;83.75
70051;SHT30;57391;51.306;22.680;2022-10-31T17:51:43;11.08;83.77
70051;SHT30;57391;51.306;22.680;2022-10-31T17:54:10;11.11;83.64
70051;SHT30;57391;51.306;22.680;2022-10-31T17:56:37;11.12;83.68
70051;SHT30;57391;51.306;22.680;2022-10-31T17:59:04;11.13;83.80
70051;SHT30;57391;51.306;22.680;2022-10-31T18:01:32;11.14;83.93
70051;SHT30;57391;51.306;22.680;2022-10-31T18:03:59;11.14;84.07
70051;SHT30;57391;51.306;22.680;2022-10-31T18:06:26;11.16;84.26
70051;SHT30;57391;51.306;22.680;2022-10-31T18:08:54;11.16;84.39
70051;SHT30;57391;51.306;22.680;2022-10-31T18:11:24;11.18;84.49
70051;SHT30;57391;51.306;22.680;2022-10-31T18:13:55;11.15;84.50
70051;SHT30;57391;51.306;22.680;2022-10-31T18:16:24;11.13;84.52
70051;SHT30;57391;51.306;22.680;2022-10-31T18:18:53;11.12;84.42
70051;SHT30;57391;51.306;22.680;2022-10-31T18:21:24;11.11;84.23
70051;SHT30;57391;51.306;22.680;2022-10-31T18:23:56;11.07;84.10
70051;SHT30;57391;51.306;22.680;2022-10-31T18:26:26;11.04;84.19
70051;SHT30;57391;51.306;22.680;2022-10-31T18:28:53;11.02;84.32
70051;SHT30;57391;51.306;22.680;2022-10-31T18:31:21;11.00;84.41
70051;SHT30;57391;51.306;22.680;2022-10-31T18:33:51;10.95;84.54
70051;SHT30;57391;51.306;22.680;2022-10-31T18:36:21;10.89;84.70
70051;SHT30;57391;51.306;22.680;2022-10-31T18:38:49;10.83;84.90
70051;SHT30;57391;51.306;22.680;2022-10-31T18:41:17;10.77;85.10
70051;SHT30;57391;51.306;22.680;2022-10-31T18:43:45;10.72;85.14
70051;SHT30;57391;51.306;22.680;2022-10-31T18:46:12;10.67;85.27
70051;SHT30;57391;51.306;22.680;2022-10-31T18:48:43;10.61;85.39
70051;SHT30;57391;51.306;22.680;2022-10-31T18:51:11;10.56;85.57